Dutch
Home     News     Corporate     Events & Tours     Flight ops     Crew centre      
My transavia virtual    Join us    Last logs    Who is flying    Forum    Software    Training    VRTS     
 

view flightdata
view flightplan
view OFP
view flightlog



flightdata:
pilot: Willem van Antwerpen
flight: TVF4011
from: EHAM (Amsterdam Schiphol)
to: LFPO (Paris Paris Orly)
date: 02-01-2019
departure: 12:09z
arrival: 13:02z
duration: 0:52
aircraft: B738 (FHTVA)
distance: 263 NM
touchdown: no landing



flightplan:
-(FPL-TVF4011-IS
-B738/M-SDFGHIRWXY/LB1
-EHAM1209
-N0438F230 WOODY UN872 DENOX UZ319 MOPIL
-LFPO0046 LFPG
-EET/EBUR0012 LFFF0021 PBN/A1B1D1O1S1 DOF/190102 REG/FHTVA SEL/AMBH CODE/4841A5 OPR/TVF RVR/200 RMK/TCAS CALLSIGN FRANCE SOLEIL)



operational flightplan (OFP):
DISPATCH BRIEFING
--------- --------- --------- --------- --------- --------- --------- --------- --------- ---------
PREDEPARTURE ATC CLEARANCE:
.

.
--------- --------- --------- --------- --------- --------- --------- --------- --------- ---------
OFP 1       02 JAN 19/11:54


TVF4011    C/S TVF4011  EHAM/AMS    LFPO/ORY            CRYZ SYS               CI 36
02 JAN 19  F-HTVA       1910/1920   2011/2006           GND DIST      233   
B737-800 CF  TAB:       CTOT ....  STA 20:15           AIR DIST      260
                                                       AVG W/C          0
MAXIMUM    ZFW 62731  LAW 66360   TOW 70999            AVG ISA       M08
ESTIMATED  ZFW 59981  LAW 62541   TOW 64714            F-F FACTOR    0.0
ACTUAL     ZFW......  LAW......   TOW.......

--------- --------- --------- --------- --------- --------- --------- --------- --------- ---------
TRIP        2173   0046           .....  .....
CONT         186   0005           .....  .....
ALTN         852   0018  LFPG     .....  .....  ....
FINAL       1113   0030           .....  .....
ADDNL        409   0011           .....  .....
TANKERING                  
PLN TOF     4324   0139
DIFF        ....   ....
PLN TOF     ....   ....  (CORRECTED)   
EXTRA          0   ....                  
TOF         4324                    
TAXI         200                      
BLOCK       4933        

--------- --------- --------- --------- --------- --------- --------- --------- --------- ---------

REASON EXTRA FUEL     MATRIX FUEL: ...
O ECN-ECONOMICAL      O TMP-TEMPORARILY      O ATC-AIR TRAFFIC CONTROL
O FOB-FUEL ON BOARD   O MSC-MISCELLANEOUS    O FPC-FLIGHT PLN CORR
O WXR-WEATHER         O TEC_TECHNICAL        ACT.CI/CRZ USED: . . .

--------- --------- --------- --------- --------- --------- --------- --------- --------- ---------
                                                  00 MIN HOLD LFPO: 0 EXTRA


--------- --------- --------- --------- --------- --------- --------- --------- --------- ---------
COMMANDERS NAME:                                  SIGNATURE:

--------- --------- --------- --------- --------- --------- --------- --------- --------- ---------
FROM:   EHAM ELEV -11         TO: LFPO ELEV 291     ALTN: LFPG ELEV 392
ATC C/S      : C/S TVF4011                AVG ISA  : ...
CO-ROUTE     : ---                       AVG TT   :
FMC-RES      : 1965                      AVG W/C  : 0
CRZ ALT      : FL230
CRZ SYS      : CI 36


           EHAM/24  N0438F230 KUDA1S WOODY UN872 DENOX UZ319 MOPIL MOPI7E LFPO/26

--------- --------- --------- --------- --------- --------- --------- --------- --------- ---------


RVSM ALT CHECK:  FL:...... LEFT: ...... STBY: ...... RIGHT: ......

--------- --------- --------- --------- --------- --------- --------- --------- --------- ---------
DESTINATION ALTERNATE LFPG
--------- --------- --------- --------- --------- --------- --------- --------- --------- ---------



--------- --------- --------- --------- --------- --------- --------- --------- --------- ---------
ALTERNATE SUMMARY
--------- --------- --------- --------- --------- --------- --------- --------- --------- ---------

     ALTN     DIST  LVL      WC    TIME   FUEL  VIA
     LFPG/27R   73 FL120       0   0018    852  PG6P TSU DCT D180I DCT PGS
INFO/LFQQ/26   159 FL240       0   0032   1420  NURM6P NURMO UN874 CMB CMB5B
                                          P568
INFO/EBBR/25L  213 FL300       0   0039   1734  NURM6P NURMO UN874 CMB UZ373
                                                 ARVOL ARVO7A
                                          P882
INFO/LFRS/21   206 FL190       0   0038   1787  LGL6P LGL A5 VALAX VALA1A
                                          P935


--------- --------- --------- --------- --------- --------- --------- --------- --------- ---------

-(FPL-TVF4011-IS
-B738/M-SDFGHIRWXY/LB1
-EHAM1209
-N0438F230 WOODY UN872 DENOX UZ319 MOPIL
-LFPO0046 LFPG
-EET/EBUR0012 LFFF0021 PBN/A1B1D1O1S1 DOF/190102 REG/FHTVA SEL/AMBH CODE/4841A5 OPR/TVF RVR/200 RMK/TCAS CALLSIGN FRANCE SOLEIL)

WEATHER BRIEFING - GENERATED 02 JAN 2019 11:54 UTC
--------------------------------------------------------------------------------

EHAM LFPO LFPG LFQQ EBBR LFRS

--------------------------------------------------------------------------------
ORIGIN: EHAM (SCHIPHOL)
--------------------------------------------------------------------------------
EHAM 021125Z 34010KT 300V360 9999 FEW020 SCT048 06/01 Q1038 NOSIG

EHAM 020508Z 0206/0312 35015KT 9999 SCT035
      BECMG 0214/0217 34007KT PROB30
      TEMPO 0223/0312 7000 -SHRA SCT020TCU


--------------------------------------------------------------------------------
DESTINATION: LFPO (PARIS)
--------------------------------------------------------------------------------
LFPO 021130Z 01008KT 340V040 9999 FEW023 BKN047 06/02 Q1040 NOSIG

LFPO 020540Z 0206/0312 36008KT 9999 BKN040
      TEMPO 0303/0306 3500 BR BKN003 PROB40
      TEMPO 0303/0312 2000 BR OVC002 PROB30
      TEMPO 0305/0311 0600 FG VV///


--------------------------------------------------------------------------------
ALTERNATE: LFPG (PARIS)
--------------------------------------------------------------------------------
LFPG 021130Z 35008KT 9999 FEW020 BKN046 06/02 Q1040 NOSIG

LFPG 020500Z 0206/0312 35005KT 9999 BKN040 TX07/0214Z TN01/0306Z
      BECMG 0303/0305 3000 BR PROB40
      TEMPO 0305/0308 0600 FG OVC001
      BECMG 0308/0310 6000 NSW


--------------------------------------------------------------------------------
ALTERNATE: LFQQ (LILLE)
--------------------------------------------------------------------------------
LFQQ 021130Z AUTO 34008KT 9999 FEW036 OVC054 07/03 Q1040 NOSIG

LFQQ 020500Z 0206/0312 32008KT 9999 BKN030


--------------------------------------------------------------------------------
ALTERNATE: EBBR (BRUSSELS)
--------------------------------------------------------------------------------
EBBR 021120Z 32004KT 290V350 9999 SCT028 06/02 Q1038 NOSIG

EBBR 020520Z 0206/0312 32007KT 9999 SCT025=  EDDF 020500Z 0206/0312 30011KT 9999 SCT035 PROB30
      TEMPO 0206/0215 33015G25KT SHRA BKN025TCU
      BECMG 0217/0220 31005KT PROB30
      TEMPO 0300/0307 4000 -SHSN BKN020TCU


--------------------------------------------------------------------------------
ALTERNATE: LFRS (NANTES)
--------------------------------------------------------------------------------
LFRS 021130Z AUTO 06011KT 020V080 9999 BKN034 OVC040 08/01 Q1040 NOSIG

LFRS 020500Z 0206/0312 VRB03KT 9999 BKN040
      BECMG 0206/0209 06010KT PROB30
      TEMPO 0206/0209 BKN009
      BECMG 0304/0306 4000 BR OVC008
      BECMG 0309/0312 9999 NSW BKN014


NOTAM BRIEFING - GENERATED 02 JAN 2019 11:54 UTC
--------------------------------------------------------------------------------

EHAM LFPO LFPG LFPG LFQQ EBBR LFRS

--------------------------------------------------------------------------------
GLOBAL TRANSAVIA.COM VIRTUAL NOTAMS
--------------------------------------------------------------------------------
REF:NIL PLEASE CONTACT OPERATIONS IN CASE OF STRUCTURAL FLIGHTPLAN ERRORS ON FLIGHT-OPS@TRANSAVIA-VIRTUAL.COM
VALID:UFN

REF:NIL
PLEASE CHECK ACARS EVERY 10 MINUTES WHEN FLYING WITH SOUND OFF. AN NEW ACARS MESSAGE PRODUCE A SOUND SIGNAL UNTILL ITS READ. FLOWCONTROL DON'T RECEIVE MUCH REACTION ON OUTGOING ACARS MESSAGES ACCORDING FLIGHTSTATUS.
SOURCE: SPL/HV/OCC/
END VALID: UFN

REF:NIL
PLEASE CONTACT FLOWCONTROL IN CASE OF PROBLEMS WITH ROUTINGS
SOURCE: SPL/HV/OCC/
END VALID: UFN

REF:NIL
IN CASE OF ENGINE-OUT FLY V2 OR V2 20 MAX. UNTIL ABOVE MSA.
LEVEL-OFF AT AN ALTITUDE ROUNDED OFF TO THE FIRST 1000 FT OF THE HIGHEST MSA.
E.G: MSA EHAM; 1.7 AND 2.3 LEVEL-OFF 3000 FT. AFTER LANDING MAKE A REP TO OCC ON 131.975
SOURCE:SPL/HV/OCC
END VALID:UFN



flightlog:
Pilot : Willem van  Antwerpen
Flight: TVF4011
From  : EHAM Schiphol
To    : LFPO Paris

[FLIGHTLOG] 1.5.4
02-01-2019 11:55:47z, logging started
02-01-2019 12:09:25z, parking brake released
02-01-2019 12:10:45z, pos report: 000 KIAS, 00 010 ft, heading 121, winds 356 @ 10 kts
02-01-2019 12:12:45z, flaps set to 12%
02-01-2019 12:12:46z, flaps set to 37%
02-01-2019 12:15:49z, take-off at 148 KIAS
02-01-2019 12:15:49z, pos report: 148 KIAS, -00 004 ft, heading 238, winds 342 @ 10 kts
02-01-2019 12:15:49z, flying online @ VATSIM (TVF4011)
02-01-2019 12:15:49z, position: EHAM - Schiphol
02-01-2019 12:15:53z, retracted gear at 159 KIAS and 47 ft AGL
02-01-2019 12:16:28z, flaps set to 25%
02-01-2019 12:18:09z, flaps set to 12%
02-01-2019 12:18:19z, flaps set to 0%
02-01-2019 12:25:45z, pos report: 271 KIAS, 21 949 ft, heading 209, winds 000 @ 54 kts
02-01-2019 12:40:46z, pos report: 286 KIAS, 21 594 ft, heading 172, winds 000 @ 57 kts
02-01-2019 12:53:31z, lost localizer
02-01-2019 12:54:59z, intercepted localizer
02-01-2019 12:55:25z, flaps set to 12%
02-01-2019 12:55:47z, pos report: 210 KIAS, 03 185 ft, heading 257, winds 345 @ 11 kts
02-01-2019 12:55:52z, flaps set to 25%
02-01-2019 12:56:07z, lowered gear at 193 KIAS and 2605 ft AGL
02-01-2019 12:56:11z, flaps set to 37%
02-01-2019 12:56:26z, flaps set to 50%
02-01-2019 12:56:35z, flaps set to 62%
02-01-2019 12:56:38z, on glideslope
02-01-2019 12:56:42z, flaps set to 75%
02-01-2019 12:56:50z, flaps set to 87%
02-01-2019 12:58:54z, below glideslope
02-01-2019 13:00:58z, flaps set to 75%
02-01-2019 13:01:00z, flaps set to 62%
02-01-2019 13:01:01z, flaps set to 50%
02-01-2019 13:02:02z, parking brake set
02-01-2019 13:02:45z, logging ended

©2009-2019, transavia virtual. All rights reserved. This website is only meant for simulation purposes.
This website is not owned by transavia, nor is transavia responsible for the content of this website.